createdAt,value
2023-03-25T05:54:50.394Z,99060.03
2023-03-25T05:57:53.224Z,99050.94
2023-03-25T06:00:58.721Z,99064.47
2023-03-25T06:04:05.332Z,99073.66
2023-03-25T06:07:23.794Z,99096.34
2023-03-25T06:10:45.805Z,99121.38
2023-03-25T06:17:30.566Z,99158.50
2023-03-25T06:20:47.135Z,99144.88
2023-03-25T06:24:11.647Z,99157.69
2023-03-25T06:27:20.866Z,99171.31
2023-03-25T06:30:24.001Z,99174.72
2023-03-25T06:33:42.724Z,99180.00
2023-03-25T06:36:50.157Z,99179.13
2023-03-25T06:39:56.700Z,99176.38
2023-03-25T06:43:02.779Z,99174.38
2023-03-25T06:46:19.596Z,99174.25
2023-03-25T06:49:39.292Z,99171.44
2023-03-25T06:52:45.565Z,99169.53
2023-03-25T06:55:49.145Z,99174.06
2023-03-25T06:58:55.209Z,99171.31
2023-03-25T07:02:01.729Z,99175.34
2023-03-25T07:05:07.290Z,99177.13
2023-03-25T07:08:12.061Z,99173.66
2023-03-25T07:11:18.624Z,99173.66
2023-03-25T07:14:27.059Z,99170.06
2023-03-25T07:17:31.019Z,99169.22
2023-03-25T07:20:46.669Z,99167.31
2023-03-25T07:23:49.672Z,99176.34
2023-03-25T07:26:55.702Z,99183.13
2023-03-25T07:29:59.494Z,99184.19
2023-03-25T07:33:01.962Z,99182.25
2023-03-25T07:36:06.214Z,99184.19
2023-03-25T07:39:08.774Z,99189.19
2023-03-25T07:42:11.226Z,99180.50
2023-03-25T07:45:15.725Z,99182.09
2023-03-25T07:48:18.275Z,99196.94
2023-03-25T07:51:20.748Z,99192.41
2023-03-25T07:54:24.425Z,99189.91
2023-03-25T07:57:26.981Z,99182.22
2023-03-25T08:00:31.157Z,99197.53
2023-03-25T08:03:35.077Z,99198.31
2023-03-25T08:06:37.760Z,99175.56
2023-03-25T08:09:42.138Z,99223.72
2023-03-25T08:12:45.385Z,99201.41
2023-03-25T08:15:49.700Z,99169.06
2023-03-25T08:18:53.154Z,99225.84
2023-03-25T08:21:55.994Z,99201.44
2023-03-25T08:24:58.786Z,99182.66
2023-03-25T08:28:01.260Z,99178.69
2023-03-25T08:31:06.636Z,99178.59
2023-03-25T08:34:09.102Z,99177.94
2023-03-25T08:37:11.564Z,99177.72
2023-03-25T08:40:14.257Z,99182.03
2023-03-25T08:43:16.809Z,99183.25
2023-03-25T08:46:20.726Z,99186.09
2023-03-25T08:49:23.457Z,99172.75
2023-03-25T08:52:27.457Z,99170.19
2023-03-25T08:55:29.903Z,99168.84
2023-03-25T08:58:32.393Z,99169.47
2023-03-25T09:01:37.540Z,99154.75
2023-03-25T09:04:40.864Z,99174.06
2023-03-25T09:07:43.389Z,99164.38
2023-03-25T09:10:46.166Z,99169.44
2023-03-25T09:13:48.626Z,99169.41
2023-03-25T09:16:52.386Z,99168.53
2023-03-25T09:19:56.377Z,99173.00
2023-03-25T09:23:00.177Z,99177.50
2023-03-25T09:26:05.211Z,99173.44
2023-03-25T09:29:07.673Z,99169.09
2023-03-25T09:32:11.456Z,99184.09
2023-03-25T09:35:14.052Z,99187.00
2023-03-25T09:38:17.002Z,99181.81
2023-03-25T09:41:31.592Z,99201.69
2023-03-25T09:44:39.445Z,99187.56
2023-03-25T09:47:53.323Z,99286.75
2023-03-25T09:50:58.778Z,99206.00
2023-03-25T09:54:05.396Z,99215.25
2023-03-25T09:57:12.084Z,99213.19
2023-03-25T10:00:19.665Z,99209.00
2023-03-25T10:03:30.542Z,99203.13
2023-03-25T10:06:39.005Z,99210.09
2023-03-25T10:09:49.692Z,99215.28
2023-03-25T10:13:04.375Z,99206.03
2023-03-25T10:16:15.063Z,99203.94
2023-03-25T10:19:39.306Z,99205.50
2023-03-25T10:22:57.071Z,99208.28
2023-03-25T10:26:06.668Z,99203.84
2023-03-25T10:29:14.151Z,99212.28
2023-03-25T10:32:18.858Z,99208.41
2023-03-25T10:35:27.122Z,99196.41
2023-03-25T10:38:33.763Z,99221.53
2023-03-25T10:41:39.717Z,99227.31
2023-03-25T10:44:43.538Z,99217.44
2023-03-25T10:47:48.407Z,99212.66
2023-03-25T10:50:54.298Z,99214.22
2023-03-25T10:53:57.347Z,99205.69
2023-03-25T10:57:02.949Z,99206.91
2023-03-25T11:00:14.694Z,99197.88
2023-03-25T11:03:21.143Z,99196.25
2023-03-25T11:06:29.707Z,99197.72
2023-03-25T11:09:36.724Z,99204.81
2023-03-25T11:12:43.315Z,99204.09
2023-03-25T11:15:46.098Z,99207.06
2023-03-25T11:18:48.773Z,99215.66
2023-03-25T11:21:56.404Z,99219.09
2023-03-25T11:25:01.758Z,99213.28
2023-03-25T11:28:10.641Z,99196.00
2023-03-25T11:31:16.759Z,99195.72
2023-03-25T11:34:21.568Z,99192.06
2023-03-25T11:37:26.278Z,99191.03
2023-03-25T11:40:31.122Z,99190.84
2023-03-25T11:43:36.682Z,99179.13
2023-03-25T11:46:44.082Z,99168.06
2023-03-25T11:49:50.317Z,99162.56
2023-03-25T11:52:57.397Z,99149.16
2023-03-25T11:56:04.447Z,99146.66
2023-03-25T11:59:11.932Z,99146.84
2023-03-25T12:02:24.549Z,99146.66
2023-03-25T12:05:27.065Z,99153.88
2023-03-25T12:08:42.470Z,99146.09
2023-03-25T12:11:55.502Z,99143.81
2023-03-25T12:15:12.329Z,99149.50
2023-03-25T12:18:31.954Z,99132.91
2023-03-25T12:21:49.549Z,99142.53
2023-03-25T12:25:08.075Z,99133.44
2023-03-25T12:28:31.211Z,99136.84
2023-03-25T12:31:47.099Z,99127.81
2023-03-25T12:35:00.317Z,99124.75
2023-03-25T12:38:20.606Z,99116.59
2023-03-25T12:41:33.653Z,99124.53
2023-03-25T12:44:49.879Z,99115.84
2023-03-25T12:47:57.267Z,99125.16
2023-03-25T12:51:10.933Z,99125.50
2023-03-25T12:54:31.194Z,99127.06
2023-03-25T12:57:49.258Z,99123.16
2023-03-25T13:01:01.302Z,99129.06
2023-03-25T13:04:26.421Z,99146.56
2023-03-25T13:07:35.416Z,99135.94
2023-03-25T13:10:41.786Z,99141.06
2023-03-25T13:13:49.479Z,99136.03
2023-03-25T13:16:55.710Z,99130.97
2023-03-25T13:20:01.897Z,99120.25
2023-03-25T13:23:07.797Z,99116.16
2023-03-25T13:26:12.821Z,99122.72
2023-03-25T13:29:27.697Z,99126.91
2023-03-25T13:32:36.427Z,99123.44
2023-03-25T13:35:46.010Z,99125.94
2023-03-25T13:38:52.934Z,99119.56
2023-03-25T13:42:00.981Z,99113.97
2023-03-25T13:45:07.433Z,99104.81
2023-03-25T13:48:17.774Z,99107.22
2023-03-25T13:51:21.168Z,99122.44
2023-03-25T13:54:28.006Z,99099.50
2023-03-25T13:58:09.122Z,99122.31
2023-03-25T14:01:37.173Z,99209.56
2023-03-25T14:05:11.653Z,99194.81
2023-03-25T14:08:35.439Z,99198.06
2023-03-25T14:11:44.972Z,99204.28
2023-03-25T14:14:51.394Z,99203.97
2023-03-25T14:17:56.248Z,99189.41
2023-03-25T14:20:59.413Z,99192.53
2023-03-25T14:24:06.136Z,99200.19
2023-03-25T14:27:17.874Z,99200.63
2023-03-25T14:30:23.269Z,99181.94
2023-03-25T14:33:27.064Z,99186.75
2023-03-25T14:36:30.295Z,99181.88
2023-03-25T14:39:39.751Z,99180.19
2023-03-25T14:42:57.377Z,99182.97
2023-03-25T14:46:18.408Z,99176.84
2023-03-25T14:49:30.127Z,99183.94
2023-03-25T14:52:34.481Z,99177.06
2023-03-25T14:55:42.943Z,99187.09
2023-03-25T14:58:45.949Z,99193.25
2023-03-25T15:01:49.041Z,99192.56
2023-03-25T15:04:59.400Z,99186.41
2023-03-25T15:08:14.340Z,99185.16
2023-03-25T15:11:19.175Z,99171.63
2023-03-25T15:14:25.513Z,99159.53
2023-03-25T15:17:44.331Z,99151.00
2023-03-25T15:20:48.112Z,99146.06
2023-03-25T15:23:53.545Z,99142.22
2023-03-25T15:26:58.038Z,99137.41
2023-03-25T15:30:09.489Z,99133.63
2023-03-25T15:33:24.561Z,99135.81
2023-03-25T15:36:45.717Z,99141.53
2023-03-25T15:40:01.654Z,99141.97
2023-03-25T15:43:25.827Z,99141.25
2023-03-25T15:46:40.890Z,99137.13
2023-03-25T15:50:25.774Z,99144.09
2023-03-25T15:53:50.972Z,99137.41
2023-03-25T15:56:58.046Z,99128.72
2023-03-25T16:00:11.826Z,99135.06
2023-03-25T16:03:17.242Z,99148.19
2023-03-25T16:06:21.732Z,99151.63
2023-03-25T16:09:28.832Z,99151.94
2023-03-25T16:12:31.637Z,99136.13
2023-03-25T16:15:37.115Z,99135.81
2023-03-25T16:18:41.311Z,99130.72
2023-03-25T16:21:44.017Z,99132.50
2023-03-25T16:24:50.212Z,99124.88
2023-03-25T16:27:56.048Z,99131.34
2023-03-25T16:30:58.620Z,99123.66
2023-03-25T16:34:01.432Z,99126.09
2023-03-25T16:37:05.523Z,99123.16
2023-03-25T16:40:15.876Z,99132.44
2023-03-25T16:43:21.682Z,99141.69
2023-03-25T16:46:24.844Z,99156.66
2023-03-25T16:49:30.972Z,99157.50
2023-03-25T16:52:35.517Z,99143.69
2023-03-25T16:55:48.887Z,99141.38
2023-03-25T16:58:58.517Z,99135.59
2023-03-25T17:02:02.762Z,99138.66
2023-03-25T17:05:16.167Z,99132.13
2023-03-25T17:08:21.565Z,99123.78
2023-03-25T17:11:29.018Z,99131.28
2023-03-25T17:19:08.096Z,99121.03
2023-03-25T17:22:17.612Z,99122.72
2023-03-25T17:25:30.390Z,99129.91
2023-03-25T17:28:44.284Z,99129.91
2023-03-25T17:31:56.289Z,99135.56
2023-03-25T17:35:25.469Z,99147.81
2023-03-25T17:38:35.950Z,99188.94
2023-03-25T18:26:08.653Z,99152.13
2023-03-25T18:29:30.327Z,99145.38
2023-03-25T18:32:37.493Z,99136.31
2023-03-25T18:35:55.906Z,99139.13
2023-03-25T18:39:00.860Z,99138.97
2023-03-25T18:42:07.428Z,99140.19
2023-03-25T18:45:30.167Z,99138.38
2023-03-25T18:48:34.708Z,99141.09
2023-03-25T18:51:45.124Z,99135.00
2023-03-25T18:54:51.677Z,99153.78
2023-03-25T18:58:12.262Z,99138.88
2023-03-25T19:01:18.812Z,99141.00
2023-03-25T19:04:22.869Z,99125.81
2023-03-25T19:07:34.650Z,99127.03
